Vallecitos, New Mexico
Current Conditions -  °F | °C
As of 11:35 PM on Thursday 18 Dec 2014 (Local Time) from KSKX Reporting Station
Overcast Overcast  
Wind Chill: 19°   Ceiling: 4800
Heat Index: 27°   Visibility: 10mi
Dew Point: 21°   Wind: 7mph
Humidity: 80%   Direction: 350°N
Pressure: 30.14"   Gusts: NA
Location:  36.49°N, 106.12°W
Report Text: KSKX 190635Z AUTO 35006KT 10SM OVC048 M03/M06 A3014 RMK AO1
Loading
Personal Weather Stations






























Interactive Weather Map New forecast layout! Learn more

10-Day Weather Forecast

Advertisements
Track Severe Weather on mobile